createdAt,value
2018-04-27T00:00:54.397Z,6.38
2018-04-27T00:03:27.130Z,6.36
2018-04-27T00:05:59.892Z,6.34
2018-04-27T00:08:32.013Z,6.36
2018-04-27T00:11:04.787Z,6.34
2018-04-27T00:13:37.253Z,6.34
2018-04-27T00:16:09.671Z,6.29
2018-04-27T00:18:42.173Z,6.25
2018-04-27T00:21:14.135Z,6.24
2018-04-27T00:23:47.072Z,6.26
2018-04-27T00:26:19.293Z,6.29
2018-04-27T00:28:51.955Z,6.24
2018-04-27T00:31:24.635Z,6.17
2018-04-27T00:33:58.910Z,6.12
2018-04-27T00:36:32.577Z,6.09
2018-04-27T00:39:04.518Z,6.07
2018-04-27T00:41:38.179Z,6.03
2018-04-27T00:44:09.874Z,5.98
2018-04-27T00:46:43.432Z,5.95
2018-04-27T00:49:15.252Z,5.94
2018-04-27T00:51:48.155Z,5.96
2018-04-27T00:54:20.094Z,5.95
2018-04-27T00:56:53.654Z,5.95
2018-04-27T00:59:26.653Z,5.96
2018-04-27T01:01:58.755Z,5.96
2018-04-27T01:04:30.839Z,5.94
2018-04-27T01:07:02.935Z,5.92
2018-04-27T01:09:35.255Z,5.89
2018-04-27T01:12:07.677Z,5.87
2018-04-27T01:14:41.920Z,5.87
2018-04-27T01:17:14.873Z,5.87
2018-04-27T01:19:47.892Z,5.88
2018-04-27T01:22:20.176Z,5.87
2018-04-27T01:24:51.890Z,5.87
2018-04-27T01:27:24.177Z,5.89
2018-04-27T01:29:56.435Z,5.89
2018-04-27T01:32:28.292Z,5.89
2018-04-27T01:35:00.212Z,5.89
2018-04-27T01:37:32.473Z,5.87
2018-04-27T01:40:04.238Z,5.85
2018-04-27T01:42:36.994Z,5.86
2018-04-27T01:45:10.112Z,5.79
2018-04-27T01:47:43.572Z,5.75
2018-04-27T01:50:15.934Z,5.72
2018-04-27T01:52:49.391Z,5.67
2018-04-27T01:55:22.480Z,5.64
2018-04-27T01:57:55.874Z,5.62
2018-04-27T02:00:28.690Z,5.60
2018-04-27T02:03:00.493Z,5.54
2018-04-27T02:05:35.513Z,5.50
2018-04-27T02:08:07.733Z,5.49
2018-04-27T02:10:40.594Z,5.45
2018-04-27T02:13:13.198Z,5.41
2018-04-27T02:15:45.920Z,5.40
2018-04-27T02:18:18.892Z,5.36
2018-04-27T02:20:51.814Z,5.36
2018-04-27T02:23:24.531Z,5.35
2018-04-27T02:25:56.293Z,5.32
2018-04-27T02:28:30.011Z,5.27
2018-04-27T02:31:02.989Z,5.24
2018-04-27T02:33:36.897Z,5.22
2018-04-27T02:36:10.372Z,5.20
2018-04-27T02:38:43.234Z,5.17
2018-04-27T02:41:15.098Z,5.15
2018-04-27T02:43:47.590Z,5.15
2018-04-27T02:46:19.879Z,5.15
2018-04-27T02:48:52.775Z,5.11
2018-04-27T02:51:25.231Z,5.11
2018-04-27T02:53:57.955Z,5.08
2018-04-27T02:56:30.512Z,5.04
2018-04-27T02:59:03.477Z,5.03
2018-04-27T03:01:37.655Z,5.01
2018-04-27T03:04:09.791Z,4.98
2018-04-27T03:06:42.553Z,4.95
2018-04-27T03:09:14.518Z,4.92
2018-04-27T03:11:45.951Z,4.90
2018-04-27T03:14:18.873Z,4.87
2018-04-27T03:16:51.613Z,4.85
2018-04-27T03:19:24.452Z,4.83
2018-04-27T03:21:56.434Z,4.81
2018-04-27T03:24:29.557Z,4.78
2018-04-27T03:27:03.853Z,4.73
2018-04-27T03:29:37.080Z,4.70
2018-04-27T03:32:11.316Z,4.67
2018-04-27T03:34:45.096Z,4.66
2018-04-27T03:37:20.374Z,4.63
2018-04-27T03:39:54.515Z,4.62
2018-04-27T03:42:27.050Z,4.60
2018-04-27T03:44:58.814Z,4.58
2018-04-27T03:47:31.838Z,4.57
2018-04-27T03:50:03.951Z,4.55
2018-04-27T03:52:35.752Z,4.52
2018-04-27T03:55:07.511Z,4.49
2018-04-27T03:57:40.115Z,4.45
2018-04-27T04:00:30.251Z,4.42
2018-04-27T04:03:18.673Z,4.40
2018-04-27T04:05:51.495Z,4.39
2018-04-27T04:08:24.635Z,4.40
2018-04-27T04:11:13.755Z,4.38
2018-04-27T04:13:45.608Z,4.34
2018-04-27T04:16:18.044Z,4.30
2018-04-27T04:18:50.870Z,4.27
2018-04-27T04:21:25.093Z,4.27
2018-04-27T04:23:58.411Z,4.25
2018-04-27T04:26:32.494Z,4.26
2018-04-27T04:29:04.875Z,4.30
2018-04-27T04:31:38.880Z,4.37
2018-04-27T04:34:12.252Z,4.46
2018-04-27T04:36:47.433Z,4.54
2018-04-27T04:39:21.398Z,4.62
2018-04-27T04:41:53.828Z,4.72
2018-04-27T04:44:26.449Z,4.82
2018-04-27T04:47:01.657Z,4.92
2018-04-27T04:49:34.752Z,5.00
2018-04-27T04:52:08.739Z,5.08
2018-04-27T04:54:42.455Z,5.15
2018-04-27T04:57:15.670Z,5.20
2018-04-27T04:59:49.492Z,5.24
2018-04-27T05:02:23.290Z,5.25
2018-04-27T05:04:56.954Z,5.27
2018-04-27T05:07:29.576Z,5.30
2018-04-27T05:10:02.435Z,5.32
2018-04-27T05:12:38.394Z,5.34
2018-04-27T05:15:11.496Z,5.36
2018-04-27T05:17:45.355Z,5.40
2018-04-27T05:20:16.593Z,5.42
2018-04-27T05:22:49.371Z,5.47
2018-04-27T05:25:22.928Z,5.56
2018-04-27T05:27:55.495Z,5.63
2018-04-27T05:30:29.016Z,5.73
2018-04-27T05:33:09.453Z,5.83
2018-04-27T05:35:42.428Z,5.92
2018-04-27T05:38:15.733Z,6.00
2018-04-27T05:40:49.599Z,6.08
2018-04-27T05:43:24.594Z,6.15
2018-04-27T05:45:57.415Z,6.26
2018-04-27T05:48:31.533Z,6.41
2018-04-27T05:51:07.434Z,6.54
2018-04-27T05:53:42.054Z,6.64
2018-04-27T05:56:16.323Z,6.73
2018-04-27T05:58:51.251Z,6.81
2018-04-27T06:01:25.056Z,6.86
2018-04-27T06:04:14.714Z,6.91
2018-04-27T06:06:49.653Z,6.97
2018-04-27T06:09:22.272Z,7.04
2018-04-27T06:11:55.330Z,7.17
2018-04-27T06:14:28.573Z,7.34
2018-04-27T06:17:02.438Z,7.54
2018-04-27T06:19:36.235Z,7.70
2018-04-27T06:22:10.256Z,7.92
2018-04-27T06:25:06.610Z,8.24
2018-04-27T06:40:54.595Z,9.79
2018-04-27T06:43:34.292Z,9.93
2018-04-27T06:46:15.644Z,10.24
2018-04-27T06:48:54.792Z,10.60
2018-04-27T06:51:31.317Z,10.93
2018-04-27T06:54:05.027Z,11.20
2018-04-27T06:56:39.638Z,11.40
2018-04-27T06:59:12.456Z,11.59
2018-04-27T07:01:46.275Z,11.77
2018-04-27T07:04:25.292Z,11.93
2018-04-27T07:07:01.653Z,12.08
2018-04-27T07:09:41.588Z,12.21
2018-04-27T07:12:13.388Z,12.34
2018-04-27T07:14:46.109Z,12.46
2018-04-27T07:17:19.795Z,12.58
2018-04-27T07:19:54.850Z,12.67
2018-04-27T07:22:28.248Z,12.79
2018-04-27T07:25:01.590Z,12.90
2018-04-27T07:27:33.214Z,13.01
2018-04-27T07:30:15.833Z,13.14
2018-04-27T07:32:55.177Z,13.34
2018-04-27T07:35:31.076Z,13.57
2018-04-27T07:38:03.214Z,13.77
2018-04-27T07:40:41.289Z,13.93
2018-04-27T07:43:17.016Z,14.14
2018-04-27T07:45:51.455Z,14.46
2018-04-27T07:48:25.856Z,14.76
2018-04-27T07:51:03.138Z,15.01
2018-04-27T07:53:41.551Z,15.36
2018-04-27T07:56:14.470Z,15.63
2018-04-27T07:58:48.910Z,15.80
2018-04-27T08:01:21.054Z,16.14
2018-04-27T08:04:02.073Z,16.43
2018-04-27T08:06:34.722Z,16.63
2018-04-27T08:09:06.894Z,16.92
2018-04-27T08:11:40.856Z,17.09
2018-04-27T08:14:13.591Z,17.28
2018-04-27T08:16:54.675Z,17.56
2018-04-27T08:19:37.789Z,17.78
2018-04-27T08:22:17.075Z,18.02
2018-04-27T08:24:49.655Z,18.09
2018-04-27T08:27:23.276Z,18.20
2018-04-27T08:29:57.574Z,18.32
2018-04-27T08:32:32.630Z,18.36
2018-04-27T08:35:05.747Z,18.37
2018-04-27T08:37:41.451Z,18.40
2018-04-27T08:40:13.831Z,18.34
2018-04-27T08:42:49.626Z,18.29
2018-04-27T08:45:25.715Z,18.32
2018-04-27T08:47:59.569Z,18.35
2018-04-27T08:53:27.758Z,18.25
2018-04-27T08:56:03.874Z,18.22
2018-04-27T08:58:37.958Z,18.30
2018-04-27T09:01:10.476Z,18.29
2018-04-27T09:03:44.739Z,18.23
2018-04-27T09:06:19.643Z,18.23
2018-04-27T09:08:56.137Z,18.33
2018-04-27T09:11:28.131Z,18.46
2018-04-27T09:14:01.415Z,18.51
2018-04-27T09:16:36.994Z,18.65
2018-04-27T09:19:20.045Z,18.73
2018-04-27T09:21:55.239Z,18.76
2018-04-27T09:24:43.670Z,18.89
2018-04-27T09:56:58.059Z,19.92
2018-04-27T09:59:33.345Z,20.07
2018-04-27T10:43:46.544Z,20.93
2018-04-27T10:46:22.340Z,21.02
2018-04-27T10:48:58.422Z,21.06
2018-04-27T10:51:47.623Z,21.07
2018-04-27T10:54:23.685Z,21.02
2018-04-27T10:56:56.437Z,21.12
2018-04-27T10:59:34.117Z,21.22
2018-04-27T11:02:07.900Z,21.29
2018-04-27T11:05:02.884Z,21.35
2018-04-27T11:07:38.163Z,21.48
2018-04-27T11:10:12.137Z,21.54
2018-04-27T11:12:48.286Z,21.58
2018-04-27T11:25:03.061Z,21.76
2018-04-27T11:27:40.639Z,21.79
2018-04-27T11:33:06.018Z,21.76
2018-04-27T11:38:46.043Z,22.04
2018-04-27T11:41:19.240Z,22.06
2018-04-27T11:43:53.301Z,22.08
2018-04-27T11:46:50.899Z,22.06
2018-04-27T11:52:44.384Z,21.83
2018-04-27T11:55:24.620Z,21.91
2018-04-27T12:10:06.589Z,22.67
2018-04-27T12:58:10.501Z,23.17
2018-04-27T13:06:42.481Z,23.36
2018-04-27T13:12:53.762Z,23.27
2018-04-27T13:29:16.346Z,23.42
2018-04-27T13:31:48.861Z,23.47
2018-04-27T13:37:29.518Z,23.78
2018-04-27T13:40:03.675Z,23.83
2018-04-27T13:42:36.591Z,23.92
2018-04-27T13:45:10.759Z,24.00
2018-04-27T13:47:46.186Z,24.04
2018-04-27T13:50:23.340Z,24.10
2018-04-27T13:56:02.564Z,24.19
2018-04-27T13:59:09.403Z,24.27
2018-04-27T14:04:52.864Z,24.28
2018-04-27T14:10:33.167Z,24.26
2018-04-27T14:13:08.240Z,24.25
2018-04-27T14:15:59.960Z,24.24
2018-04-27T14:18:31.131Z,24.22
2018-04-27T14:21:08.523Z,24.25
2018-04-27T14:23:42.345Z,24.26
2018-04-27T14:26:17.871Z,24.33
2018-04-27T14:32:10.589Z,24.35
2018-04-27T14:34:45.391Z,24.44
2018-04-27T14:46:24.950Z,24.38
2018-04-27T14:49:00.118Z,24.30
2018-04-27T14:51:33.107Z,24.24
2018-04-27T14:54:07.605Z,24.27
2018-04-27T15:02:42.661Z,24.31
2018-04-27T15:05:14.008Z,24.37
2018-04-27T15:07:47.624Z,24.40
2018-04-27T15:10:21.128Z,24.35
2018-04-27T15:12:54.468Z,24.35
2018-04-27T15:15:26.902Z,24.35
2018-04-27T15:17:59.362Z,24.40
2018-04-27T15:41:22.024Z,23.94
2018-04-27T15:44:16.103Z,23.87
2018-04-27T15:46:53.028Z,23.80
2018-04-27T15:49:28.164Z,23.80
2018-04-27T15:52:02.593Z,23.80
2018-04-27T15:54:37.130Z,23.82
2018-04-27T15:57:36.366Z,23.77
2018-04-27T16:00:10.551Z,23.83
2018-04-27T16:02:46.090Z,23.86
2018-04-27T16:05:21.923Z,23.75
2018-04-27T16:07:55.635Z,23.68
2018-04-27T16:10:29.602Z,23.63
2018-04-27T16:13:12.501Z,23.48
2018-04-27T16:16:05.521Z,23.39
2018-04-27T16:18:38.707Z,23.27
2018-04-27T16:21:12.289Z,23.13
2018-04-27T16:23:48.706Z,22.97
2018-04-27T16:26:29.575Z,22.91
2018-04-27T16:29:03.530Z,22.87
2018-04-27T16:31:37.409Z,22.84
2018-04-27T16:34:13.243Z,22.77
2018-04-27T16:36:48.661Z,22.66
2018-04-27T16:39:22.162Z,22.53
2018-04-27T16:42:00.204Z,22.46
2018-04-27T16:44:43.782Z,22.38
2018-04-27T16:47:18.626Z,22.22
2018-04-27T16:49:51.868Z,22.11
2018-04-27T16:52:24.426Z,22.08
2018-04-27T16:54:57.621Z,21.97
2018-04-27T16:57:32.408Z,21.81
2018-04-27T17:00:07.491Z,21.72
2018-04-27T17:02:41.825Z,21.63
2018-04-27T17:05:17.045Z,21.55
2018-04-27T17:07:49.509Z,21.47
2018-04-27T17:10:24.854Z,21.36
2018-04-27T17:12:59.393Z,21.26
2018-04-27T17:15:32.947Z,21.13
2018-04-27T17:18:09.292Z,21.01
2018-04-27T17:20:42.379Z,20.89
2018-04-27T17:23:19.068Z,20.78
2018-04-27T17:25:52.252Z,20.67
2018-04-27T17:28:26.125Z,20.59
2018-04-27T17:31:03.647Z,20.55
2018-04-27T17:33:44.230Z,20.49
2018-04-27T17:36:25.209Z,20.40
2018-04-27T17:39:00.086Z,20.31
2018-04-27T17:41:33.888Z,20.20
2018-04-27T17:44:08.942Z,20.06
2018-04-27T17:46:42.202Z,19.94
2018-04-27T17:49:15.325Z,19.82
2018-04-27T17:51:48.193Z,19.71
2018-04-27T17:54:21.684Z,19.57
2018-04-27T17:59:43.667Z,19.35
2018-04-27T18:02:15.367Z,19.25
2018-04-27T18:04:55.551Z,19.14
2018-04-27T18:07:27.593Z,19.06
2018-04-27T18:10:00.143Z,18.96
2018-04-27T18:12:32.661Z,18.87
2018-04-27T18:15:04.544Z,18.75
2018-04-27T18:17:37.028Z,18.60
2018-04-27T18:20:09.623Z,18.49
2018-04-27T18:22:42.685Z,18.37
2018-04-27T18:25:15.770Z,18.27
2018-04-27T18:27:53.248Z,18.15
2018-04-27T18:30:26.121Z,18.04
2018-04-27T18:35:46.985Z,17.82
2018-04-27T18:38:20.644Z,17.70
2018-04-27T18:40:56.407Z,17.59
2018-04-27T18:43:29.567Z,17.49
2018-04-27T18:46:04.627Z,17.40
2018-04-27T18:48:41.709Z,17.29
2018-04-27T18:51:18.828Z,17.18
2018-04-27T18:53:52.761Z,17.05
2018-04-27T18:59:09.905Z,16.87
2018-04-27T19:01:46.137Z,16.76
2018-04-27T19:04:22.151Z,16.66
2018-04-27T19:06:56.529Z,16.57
2018-04-27T19:09:31.091Z,16.50
2018-04-27T19:12:04.520Z,16.40
2018-04-27T19:14:37.825Z,16.28
2018-04-27T19:17:25.262Z,16.19
2018-04-27T19:19:59.450Z,16.10
2018-04-27T19:22:32.574Z,16.01
2018-04-27T19:25:07.703Z,15.95
2018-04-27T19:27:43.024Z,15.89
2018-04-27T19:30:15.770Z,15.83
2018-04-27T19:32:50.904Z,15.79
2018-04-27T19:35:24.902Z,15.77
2018-04-27T19:37:58.801Z,15.74
2018-04-27T19:43:18.444Z,15.60
2018-04-27T19:45:50.986Z,15.52
2018-04-27T19:48:26.050Z,15.45
2018-04-27T19:50:59.062Z,15.41
2018-04-27T19:53:34.158Z,15.33
2018-04-27T19:56:08.351Z,15.25
2018-04-27T19:58:42.643Z,15.14
2018-04-27T20:01:31.748Z,15.07
2018-04-27T20:04:05.074Z,15.01
2018-04-27T20:06:38.025Z,14.93
2018-04-27T20:09:12.068Z,14.86
2018-04-27T20:11:48.473Z,14.81
2018-04-27T20:14:34.344Z,14.71
2018-04-27T20:17:10.808Z,14.60
2018-04-27T20:19:50.628Z,14.53
2018-04-27T20:22:25.988Z,14.49
2018-04-27T20:25:11.290Z,14.49
2018-04-27T20:27:53.546Z,14.45
2018-04-27T20:30:28.463Z,14.41
2018-04-27T20:33:03.586Z,14.42
2018-04-27T20:35:37.724Z,14.36
2018-04-27T20:38:22.325Z,14.32
2018-04-27T20:40:56.249Z,14.25
2018-04-27T20:43:30.350Z,14.20
2018-04-27T20:46:03.505Z,14.14
2018-04-27T20:48:44.451Z,14.09
2018-04-27T20:51:17.208Z,14.08
2018-04-27T20:54:06.302Z,14.04
2018-04-27T20:56:57.323Z,13.96
2018-04-27T20:59:33.827Z,13.91
2018-04-27T21:05:02.666Z,13.82
2018-04-27T21:10:22.672Z,13.79
2018-04-27T21:12:57.983Z,13.78
2018-04-27T21:15:32.344Z,13.75
2018-04-27T21:18:09.710Z,13.76
2018-04-27T21:20:44.285Z,13.70
2018-04-27T21:23:18.983Z,13.67
2018-04-27T21:26:12.444Z,13.60
2018-04-27T21:28:44.945Z,13.58
2018-04-27T21:31:21.243Z,13.51
2018-04-27T21:34:00.687Z,13.44
2018-04-27T21:36:37.071Z,13.41
2018-04-27T21:39:24.789Z,13.42
2018-04-27T21:41:58.468Z,13.43
2018-04-27T21:44:51.970Z,13.45
2018-04-27T21:47:51.545Z,13.46
2018-04-27T21:50:24.124Z,13.50
2018-04-27T21:52:59.285Z,13.53
2018-04-27T21:55:31.429Z,13.53
2018-04-27T21:58:16.267Z,13.51
2018-04-27T22:00:49.921Z,13.55
2018-04-27T22:03:28.221Z,13.61
2018-04-27T22:06:08.263Z,13.67
2018-04-27T22:09:05.026Z,13.75
2018-04-27T22:33:52.757Z,13.37
2018-04-27T22:36:30.839Z,13.33
2018-04-27T22:42:33.825Z,13.20
2018-04-27T22:45:20.684Z,13.18
2018-04-27T22:51:13.061Z,13.07
2018-04-27T22:53:51.212Z,13.04
2018-04-27T22:56:54.392Z,13.02
2018-04-27T22:59:28.922Z,13.05
2018-04-27T23:02:20.814Z,13.07
2018-04-27T23:05:09.956Z,13.03
2018-04-27T23:07:54.119Z,12.97
2018-04-27T23:10:24.621Z,12.91
2018-04-27T23:13:04.282Z,12.92
2018-04-27T23:15:41.937Z,12.95
2018-04-27T23:18:16.409Z,12.91
2018-04-27T23:20:50.452Z,12.84
2018-04-27T23:23:19.519Z,12.78
2018-04-27T23:25:51.288Z,12.73
2018-04-27T23:28:21.797Z,12.79
2018-04-27T23:30:50.712Z,12.83
2018-04-27T23:33:19.717Z,12.79
2018-04-27T23:35:55.717Z,12.71
2018-04-27T23:38:25.217Z,12.67
2018-04-27T23:40:56.894Z,12.62
2018-04-27T23:43:26.462Z,12.57
2018-04-27T23:45:55.680Z,12.53
2018-04-27T23:48:24.625Z,12.48
2018-04-27T23:51:04.841Z,12.42
2018-04-27T23:53:41.407Z,12.33
2018-04-27T23:56:13.680Z,12.24
2018-04-27T23:58:47.323Z,12.20
